sensor_id;sensor_type;location;lat;lon;timestamp;pressure;altitude;pressure_sealevel;temperature;humidity
63556;BME280;49700;48.072;7.800;2024-02-16T00:00:07;99325.78;;;11.06;nan
63556;BME280;49700;48.072;7.800;2024-02-16T00:02:37;99321.47;;;11.05;nan
63556;BME280;49700;48.072;7.800;2024-02-16T00:05:04;99316.22;;;11.05;nan
63556;BME280;49700;48.072;7.800;2024-02-16T00:07:30;99318.72;;;11.07;nan
63556;BME280;49700;48.072;7.800;2024-02-16T00:09:55;99322.09;;;11.09;nan
63556;BME280;49700;48.072;7.800;2024-02-16T00:12:21;99323.16;;;11.06;nan
63556;BME280;49700;48.072;7.800;2024-02-16T00:14:47;99323.28;;;11.05;nan
63556;BME280;49700;48.072;7.800;2024-02-16T00:17:13;99319.16;;;11.01;nan
63556;BME280;49700;48.072;7.800;2024-02-16T00:19:38;99320.44;;;10.95;nan
63556;BME280;49700;48.072;7.800;2024-02-16T00:22:04;99323.28;;;10.92;nan
63556;BME280;49700;48.072;7.800;2024-02-16T00:24:29;99315.50;;;10.91;nan
63556;BME280;49700;48.072;7.800;2024-02-16T00:26:56;99315.63;;;10.89;nan
63556;BME280;49700;48.072;7.800;2024-02-16T00:29:22;99320.13;;;10.87;nan
63556;BME280;49700;48.072;7.800;2024-02-16T00:31:47;99332.00;;;10.80;nan
63556;BME280;49700;48.072;7.800;2024-02-16T00:34:14;99326.03;;;10.78;nan
63556;BME280;49700;48.072;7.800;2024-02-16T00:36:39;99327.78;;;10.77;nan
63556;BME280;49700;48.072;7.800;2024-02-16T00:39:05;99330.41;;;10.77;nan
63556;BME280;49700;48.072;7.800;2024-02-16T00:41:31;99332.34;;;10.75;nan
63556;BME280;49700;48.072;7.800;2024-02-16T00:43:56;99330.84;;;10.71;nan
63556;BME280;49700;48.072;7.800;2024-02-16T00:46:22;99332.84;;;10.68;nan
63556;BME280;49700;48.072;7.800;2024-02-16T00:48:52;99330.44;;;10.65;nan
63556;BME280;49700;48.072;7.800;2024-02-16T00:51:17;99335.78;;;10.63;nan
63556;BME280;49700;48.072;7.800;2024-02-16T00:53:43;99338.41;;;10.63;nan
63556;BME280;49700;48.072;7.800;2024-02-16T00:56:08;99335.69;;;10.65;nan
63556;BME280;49700;48.072;7.800;2024-02-16T00:58:34;99334.66;;;10.67;nan
63556;BME280;49700;48.072;7.800;2024-02-16T01:01:00;99330.84;;;10.71;nan
63556;BME280;49700;48.072;7.800;2024-02-16T01:03:25;99331.50;;;10.75;nan
63556;BME280;49700;48.072;7.800;2024-02-16T01:05:54;99333.91;;;10.78;nan
63556;BME280;49700;48.072;7.800;2024-02-16T01:08:19;99332.13;;;10.78;nan
63556;BME280;49700;48.072;7.800;2024-02-16T01:10:45;99331.16;;;10.79;nan
63556;BME280;49700;48.072;7.800;2024-02-16T01:13:11;99333.06;;;10.77;nan
63556;BME280;49700;48.072;7.800;2024-02-16T01:15:37;99336.00;;;10.73;nan
63556;BME280;49700;48.072;7.800;2024-02-16T01:18:03;99337.69;;;10.74;nan
63556;BME280;49700;48.072;7.800;2024-02-16T01:20:29;99327.19;;;10.74;nan
63556;BME280;49700;48.072;7.800;2024-02-16T01:22:56;99334.22;;;10.73;nan
63556;BME280;49700;48.072;7.800;2024-02-16T01:25:22;99336.84;;;10.73;nan
63556;BME280;49700;48.072;7.800;2024-02-16T01:27:47;99332.34;;;10.75;nan
63556;BME280;49700;48.072;7.800;2024-02-16T01:30:12;99329.94;;;10.72;nan
63556;BME280;49700;48.072;7.800;2024-02-16T01:32:39;99336.09;;;10.71;nan
63556;BME280;49700;48.072;7.800;2024-02-16T01:35:05;99329.06;;;10.72;nan
63556;BME280;49700;48.072;7.800;2024-02-16T01:37:31;99330.75;;;10.73;nan
63556;BME280;49700;48.072;7.800;2024-02-16T01:39:57;99324.53;;;10.74;nan
63556;BME280;49700;48.072;7.800;2024-02-16T01:42:22;99334.13;;;10.75;nan
63556;BME280;49700;48.072;7.800;2024-02-16T01:44:48;99338.44;;;10.76;nan
63556;BME280;49700;48.072;7.800;2024-02-16T01:47:13;99334.00;;;10.76;nan
63556;BME280;49700;48.072;7.800;2024-02-16T01:49:39;99325.38;;;10.74;nan
63556;BME280;49700;48.072;7.800;2024-02-16T01:52:05;99325.72;;;10.70;nan
63556;BME280;49700;48.072;7.800;2024-02-16T01:54:31;99324.16;;;10.67;nan
63556;BME280;49700;48.072;7.800;2024-02-16T01:56:56;99325.94;;;10.67;nan
63556;BME280;49700;48.072;7.800;2024-02-16T01:59:22;99325.06;;;10.66;nan
63556;BME280;49700;48.072;7.800;2024-02-16T02:01:48;99328.56;;;10.67;nan
63556;BME280;49700;48.072;7.800;2024-02-16T02:04:13;99331.19;;;10.67;nan
63556;BME280;49700;48.072;7.800;2024-02-16T02:06:38;99321.59;;;10.66;nan
63556;BME280;49700;48.072;7.800;2024-02-16T02:09:04;99314.56;;;10.66;nan
63556;BME280;49700;48.072;7.800;2024-02-16T02:11:30;99306.91;;;10.63;nan
63556;BME280;49700;48.072;7.800;2024-02-16T02:13:55;99311.63;;;10.58;nan
63556;BME280;49700;48.072;7.800;2024-02-16T02:16:20;99312.06;;;10.52;nan
63556;BME280;49700;48.072;7.800;2024-02-16T02:18:47;99312.34;;;10.47;nan
63556;BME280;49700;48.072;7.800;2024-02-16T02:21:12;99301.97;;;10.46;nan
63556;BME280;49700;48.072;7.800;2024-02-16T02:23:40;99302.91;;;10.45;nan
63556;BME280;49700;48.072;7.800;2024-02-16T02:26:06;99309.09;;;10.44;nan
63556;BME280;49700;48.072;7.800;2024-02-16T02:28:32;99300.41;;;10.43;nan
63556;BME280;49700;48.072;7.800;2024-02-16T02:30:58;99303.03;;;10.43;nan
63556;BME280;49700;48.072;7.800;2024-02-16T02:33:24;99307.31;;;10.44;nan
63556;BME280;49700;48.072;7.800;2024-02-16T02:35:49;99304.59;;;10.46;nan
63556;BME280;49700;48.072;7.800;2024-02-16T02:38:15;99301.13;;;10.45;nan
63556;BME280;49700;48.072;7.800;2024-02-16T02:40:40;99297.13;;;10.39;nan
63556;BME280;49700;48.072;7.800;2024-02-16T02:43:06;99298.28;;;10.35;nan
63556;BME280;49700;48.072;7.800;2024-02-16T02:45:31;99298.50;;;10.32;nan
63556;BME280;49700;48.072;7.800;2024-02-16T02:47:56;99309.09;;;10.31;nan
63556;BME280;49700;48.072;7.800;2024-02-16T02:50:22;99302.34;;;10.27;nan
63556;BME280;49700;48.072;7.800;2024-02-16T02:52:47;99301.59;;;10.25;nan
63556;BME280;49700;48.072;7.800;2024-02-16T02:55:13;99306.94;;;10.23;nan
63556;BME280;49700;48.072;7.800;2024-02-16T02:57:38;99310.44;;;10.24;nan
63556;BME280;49700;48.072;7.800;2024-02-16T03:00:05;99304.31;;;10.23;nan
63556;BME280;49700;48.072;7.800;2024-02-16T03:02:37;99306.94;;;10.23;nan
63556;BME280;49700;48.072;7.800;2024-02-16T03:05:03;99309.56;;;10.23;nan
63556;BME280;49700;48.072;7.800;2024-02-16T03:07:28;99303.38;;;10.24;nan
63556;BME280;49700;48.072;7.800;2024-02-16T03:09:54;99309.38;;;10.26;nan
63556;BME280;49700;48.072;7.800;2024-02-16T03:12:19;99302.34;;;10.27;nan
63556;BME280;49700;48.072;7.800;2024-02-16T03:14:44;99306.66;;;10.28;nan
63556;BME280;49700;48.072;7.800;2024-02-16T03:17:10;99298.00;;;10.26;nan
63556;BME280;49700;48.072;7.800;2024-02-16T03:19:35;99300.75;;;10.24;nan
63556;BME280;49700;48.072;7.800;2024-02-16T03:22:01;99301.69;;;10.23;nan
63556;BME280;49700;48.072;7.800;2024-02-16T03:24:27;99297.31;;;10.24;nan
63556;BME280;49700;48.072;7.800;2024-02-16T03:26:53;99298.88;;;10.26;nan
63556;BME280;49700;48.072;7.800;2024-02-16T03:29:18;99301.41;;;10.28;nan
63556;BME280;49700;48.072;7.800;2024-02-16T03:31:43;99294.56;;;10.25;nan
63556;BME280;49700;48.072;7.800;2024-02-16T03:34:09;99291.00;;;10.26;nan
63556;BME280;49700;48.072;7.800;2024-02-16T03:36:34;99298.13;;;10.24;nan
63556;BME280;49700;48.072;7.800;2024-02-16T03:39:00;99296.25;;;10.26;nan
63556;BME280;49700;48.072;7.800;2024-02-16T03:41:25;99297.97;;;10.27;nan
63556;BME280;49700;48.072;7.800;2024-02-16T03:43:51;99297.75;;;10.30;nan
63556;BME280;49700;48.072;7.800;2024-02-16T03:46:16;99303.75;;;10.32;nan
63556;BME280;49700;48.072;7.800;2024-02-16T03:48:42;99301.13;;;10.32;nan
63556;BME280;49700;48.072;7.800;2024-02-16T03:51:07;99306.47;;;10.31;nan
63556;BME280;49700;48.072;7.800;2024-02-16T03:53:33;99304.78;;;10.30;nan
63556;BME280;49700;48.072;7.800;2024-02-16T03:55:59;99310.13;;;10.28;nan
63556;BME280;49700;48.072;7.800;2024-02-16T03:58:25;99300.59;;;10.27;nan
63556;BME280;49700;48.072;7.800;2024-02-16T04:00:50;99300.63;;;10.26;nan
63556;BME280;49700;48.072;7.800;2024-02-16T04:03:18;99304.31;;;10.23;nan
63556;BME280;49700;48.072;7.800;2024-02-16T04:05:44;99316.06;;;10.17;nan
63556;BME280;49700;48.072;7.800;2024-02-16T04:08:10;99318.81;;;10.16;nan
63556;BME280;49700;48.072;7.800;2024-02-16T04:10:35;99315.53;;;10.12;nan
63556;BME280;49700;48.072;7.800;2024-02-16T04:13:03;99317.31;;;10.12;nan
63556;BME280;49700;48.072;7.800;2024-02-16T04:15:29;99309.66;;;10.09;nan
63556;BME280;49700;48.072;7.800;2024-02-16T04:17:54;99317.53;;;10.09;nan
63556;BME280;49700;48.072;7.800;2024-02-16T04:20:20;99322.88;;;10.07;nan
63556;BME280;49700;48.072;7.800;2024-02-16T04:22:46;99319.41;;;10.07;nan
63556;BME280;49700;48.072;7.800;2024-02-16T04:25:11;99319.31;;;10.08;nan
63556;BME280;49700;48.072;7.800;2024-02-16T04:27:37;99320.16;;;10.09;nan
63556;BME280;49700;48.072;7.800;2024-02-16T04:30:04;99320.97;;;10.09;nan
63556;BME280;49700;48.072;7.800;2024-02-16T04:32:30;99328.13;;;10.07;nan
63556;BME280;49700;48.072;7.800;2024-02-16T04:34:55;99328.22;;;10.06;nan
63556;BME280;49700;48.072;7.800;2024-02-16T04:37:25;99323.94;;;10.05;nan
63556;BME280;49700;48.072;7.800;2024-02-16T04:39:50;99336.09;;;10.06;nan
63556;BME280;49700;48.072;7.800;2024-02-16T04:42:16;99330.00;;;10.05;nan
63556;BME280;49700;48.072;7.800;2024-02-16T04:44:42;99334.50;;;10.03;nan
63556;BME280;49700;48.072;7.800;2024-02-16T04:47:08;99334.59;;;10.02;nan
63556;BME280;49700;48.072;7.800;2024-02-16T04:49:34;99331.25;;;10.00;nan
63556;BME280;49700;48.072;7.800;2024-02-16T04:52:00;99340.06;;;9.98;nan
63556;BME280;49700;48.072;7.800;2024-02-16T04:54:25;99337.56;;;9.97;nan
63556;BME280;49700;48.072;7.800;2024-02-16T04:56:51;99340.25;;;9.95;nan
63556;BME280;49700;48.072;7.800;2024-02-16T04:59:16;99336.88;;;9.93;nan
63556;BME280;49700;48.072;7.800;2024-02-16T05:01:45;99335.22;;;9.92;nan
63556;BME280;49700;48.072;7.800;2024-02-16T05:04:11;99344.25;;;9.88;nan
63556;BME280;49700;48.072;7.800;2024-02-16T05:06:45;99346.19;;;9.85;nan
63556;BME280;49700;48.072;7.800;2024-02-16T05:09:13;99338.63;;;9.80;nan
63556;BME280;49700;48.072;7.800;2024-02-16T05:11:45;99343.53;;;9.72;nan
63556;BME280;49700;48.072;7.800;2024-02-16T05:14:11;99341.22;;;9.67;nan
63556;BME280;49700;48.072;7.800;2024-02-16T05:16:43;99356.47;;;9.61;nan
63556;BME280;49700;48.072;7.800;2024-02-16T05:19:09;99345.56;;;9.54;nan
63556;BME280;49700;48.072;7.800;2024-02-16T05:21:34;99349.63;;;9.45;nan
63556;BME280;49700;48.072;7.800;2024-02-16T05:24:00;99349.78;;;9.42;nan
63556;BME280;49700;48.072;7.800;2024-02-16T05:26:25;99350.72;;;9.41;nan
63556;BME280;49700;48.072;7.800;2024-02-16T05:28:51;99347.28;;;9.41;nan
63556;BME280;49700;48.072;7.800;2024-02-16T05:31:17;99352.41;;;9.42;nan
63556;BME280;49700;48.072;7.800;2024-02-16T05:33:44;99347.16;;;9.42;nan
63556;BME280;49700;48.072;7.800;2024-02-16T05:36:10;99341.84;;;9.44;nan
63556;BME280;49700;48.072;7.800;2024-02-16T05:38:37;99352.22;;;9.45;nan
63556;BME280;49700;48.072;7.800;2024-02-16T05:41:09;99359.91;;;9.48;nan
63556;BME280;49700;48.072;7.800;2024-02-16T05:43:36;99362.53;;;9.48;nan
63556;BME280;49700;48.072;7.800;2024-02-16T05:46:03;99356.44;;;9.48;nan
63556;BME280;49700;48.072;7.800;2024-02-16T05:48:33;99362.53;;;9.48;nan
63556;BME280;49700;48.072;7.800;2024-02-16T05:51:00;99358.94;;;9.49;nan
63556;BME280;49700;48.072;7.800;2024-02-16T05:53:26;99359.59;;;9.53;nan
63556;BME280;49700;48.072;7.800;2024-02-16T05:55:53;99356.81;;;9.56;nan
63556;BME280;49700;48.072;7.800;2024-02-16T05:58:18;99367.19;;;9.58;nan
63556;BME280;49700;48.072;7.800;2024-02-16T06:00:43;99362.56;;;9.61;nan
63556;BME280;49700;48.072;7.800;2024-02-16T06:03:09;99361.66;;;9.62;nan
63556;BME280;49700;48.072;7.800;2024-02-16T06:05:34;99368.47;;;9.65;nan
63556;BME280;49700;48.072;7.800;2024-02-16T06:08:00;99358.63;;;9.68;nan
63556;BME280;49700;48.072;7.800;2024-02-16T06:10:26;99357.59;;;9.71;nan
63556;BME280;49700;48.072;7.800;2024-02-16T06:12:51;99362.75;;;9.72;nan
63556;BME280;49700;48.072;7.800;2024-02-16T06:15:16;99365.38;;;9.72;nan
63556;BME280;49700;48.072;7.800;2024-02-16T06:17:42;99364.34;;;9.75;nan
63556;BME280;49700;48.072;7.800;2024-02-16T06:20:08;99368.53;;;9.78;nan
63556;BME280;49700;48.072;7.800;2024-02-16T06:22:36;99370.97;;;9.81;nan
63556;BME280;49700;48.072;7.800;2024-02-16T06:25:01;99381.25;;;9.84;nan
63556;BME280;49700;48.072;7.800;2024-02-16T06:27:27;99380.97;;;9.88;nan
63556;BME280;49700;48.072;7.800;2024-02-16T06:29:52;99384.31;;;9.90;nan
63556;BME280;49700;48.072;7.800;2024-02-16T06:32:18;99381.81;;;9.89;nan
63556;BME280;49700;48.072;7.800;2024-02-16T06:34:43;99388.84;;;9.88;nan
63556;BME280;49700;48.072;7.800;2024-02-16T06:37:11;99382.72;;;9.88;nan
63556;BME280;49700;48.072;7.800;2024-02-16T06:39:36;99386.22;;;9.88;nan
63556;BME280;49700;48.072;7.800;2024-02-16T06:42:02;99387.25;;;9.86;nan
63556;BME280;49700;48.072;7.800;2024-02-16T06:44:27;99391.63;;;9.85;nan
63556;BME280;49700;48.072;7.800;2024-02-16T06:46:53;99396.81;;;9.87;nan
63556;BME280;49700;48.072;7.800;2024-02-16T06:49:18;99400.25;;;9.87;nan
63556;BME280;49700;48.072;7.800;2024-02-16T06:51:43;99409.72;;;9.90;nan
63556;BME280;49700;48.072;7.800;2024-02-16T06:54:10;99401.66;;;9.93;nan
63556;BME280;49700;48.072;7.800;2024-02-16T06:56:36;99412.88;;;9.95;nan
63556;BME280;49700;48.072;7.800;2024-02-16T06:59:01;99417.19;;;9.96;nan
63556;BME280;49700;48.072;7.800;2024-02-16T07:01:27;99423.38;;;9.95;nan
63556;BME280;49700;48.072;7.800;2024-02-16T07:03:52;99426.00;;;9.95;nan
63556;BME280;49700;48.072;7.800;2024-02-16T07:06:18;99435.56;;;9.96;nan
63556;BME280;49700;48.072;7.800;2024-02-16T07:08:44;99435.38;;;9.99;nan
63556;BME280;49700;48.072;7.800;2024-02-16T07:11:10;99442.31;;;10.00;nan
63556;BME280;49700;48.072;7.800;2024-02-16T07:13:39;99432.84;;;9.97;nan
63556;BME280;49700;48.072;7.800;2024-02-16T07:16:05;99443.25;;;9.99;nan
63556;BME280;49700;48.072;7.800;2024-02-16T07:18:33;99445.75;;;10.01;nan
63556;BME280;49700;48.072;7.800;2024-02-16T07:20:59;99451.75;;;10.03;nan
63556;BME280;49700;48.072;7.800;2024-02-16T07:23:25;99452.31;;;10.08;nan
63556;BME280;49700;48.072;7.800;2024-02-16T07:25:50;99452.13;;;10.11;nan
63556;BME280;49700;48.072;7.800;2024-02-16T07:28:16;99451.91;;;10.14;nan
63556;BME280;49700;48.072;7.800;2024-02-16T07:30:41;99454.34;;;10.17;nan
63556;BME280;49700;48.072;7.800;2024-02-16T07:33:07;99454.88;;;10.22;nan
63556;BME280;49700;48.072;7.800;2024-02-16T07:35:33;99461.72;;;10.25;nan
63556;BME280;49700;48.072;7.800;2024-02-16T07:38:04;99458.94;;;10.28;nan
63556;BME280;49700;48.072;7.800;2024-02-16T07:40:29;99453.38;;;10.32;nan
63556;BME280;49700;48.072;7.800;2024-02-16T07:42:56;99461.06;;;10.35;nan
63556;BME280;49700;48.072;7.800;2024-02-16T07:45:22;99455.59;;;10.38;nan
63556;BME280;49700;48.072;7.800;2024-02-16T07:47:47;99463.06;;;10.45;nan
63556;BME280;49700;48.072;7.800;2024-02-16T07:50:13;99458.38;;;10.50;nan
63556;BME280;49700;48.072;7.800;2024-02-16T07:52:39;99467.63;;;10.55;nan
63556;BME280;49700;48.072;7.800;2024-02-16T07:55:08;99473.31;;;10.62;nan
63556;BME280;49700;48.072;7.800;2024-02-16T07:57:34;99474.59;;;10.69;nan
63556;BME280;49700;48.072;7.800;2024-02-16T07:59:59;99474.00;;;10.78;nan
63556;BME280;49700;48.072;7.800;2024-02-16T08:02:25;99479.38;;;10.90;nan
63556;BME280;49700;48.072;7.800;2024-02-16T08:04:50;99474.34;;;10.99;nan
63556;BME280;49700;48.072;7.800;2024-02-16T08:07:16;99478.13;;;11.08;nan
63556;BME280;49700;48.072;7.800;2024-02-16T08:09:46;99480.97;;;11.18;nan
63556;BME280;49700;48.072;7.800;2024-02-16T08:12:12;99491.50;;;11.30;nan
63556;BME280;49700;48.072;7.800;2024-02-16T08:14:38;99488.75;;;11.45;nan
63556;BME280;49700;48.072;7.800;2024-02-16T08:17:05;99483.59;;;11.56;nan
63556;BME280;49700;48.072;7.800;2024-02-16T08:19:35;99486.09;;;11.70;nan
63556;BME280;49700;48.072;7.800;2024-02-16T08:22:02;99475.56;;;11.83;nan
63556;BME280;49700;48.072;7.800;2024-02-16T08:24:28;99490.91;;;12.02;nan
63556;BME280;49700;48.072;7.800;2024-02-16T08:26:54;99503.69;;;12.20;nan
63556;BME280;49700;48.072;7.800;2024-02-16T08:29:19;99490.16;;;12.37;nan
63556;BME280;49700;48.072;7.800;2024-02-16T08:31:48;99487.94;;;12.55;nan
63556;BME280;49700;48.072;7.800;2024-02-16T08:34:14;99499.88;;;12.72;nan
63556;BME280;49700;48.072;7.800;2024-02-16T08:36:44;99501.03;;;12.92;nan
63556;BME280;49700;48.072;7.800;2024-02-16T08:39:09;99504.81;;;13.12;nan
63556;BME280;49700;48.072;7.800;2024-02-16T08:41:37;99490.97;;;13.32;nan
63556;BME280;49700;48.072;7.800;2024-02-16T08:44:02;99502.38;;;13.55;nan
63556;BME280;49700;48.072;7.800;2024-02-16T08:46:28;99499.13;;;13.74;nan
63556;BME280;49700;48.072;7.800;2024-02-16T08:48:55;99503.81;;;13.93;nan
63556;BME280;49700;48.072;7.800;2024-02-16T08:51:20;99501.03;;;14.06;nan
63556;BME280;49700;48.072;7.800;2024-02-16T08:53:45;99503.19;;;14.23;nan
63556;BME280;49700;48.072;7.800;2024-02-16T08:56:11;99514.06;;;14.41;nan
63556;BME280;49700;48.072;7.800;2024-02-16T08:58:37;99503.94;;;14.57;nan
63556;BME280;49700;48.072;7.800;2024-02-16T09:01:02;99516.50;;;14.76;nan
63556;BME280;49700;48.072;7.800;2024-02-16T09:03:29;99519.53;;;14.93;nan
63556;BME280;49700;48.072;7.800;2024-02-16T09:05:54;99515.88;;;15.05;nan
63556;BME280;49700;48.072;7.800;2024-02-16T09:08:20;99523.03;;;15.14;nan
63556;BME280;49700;48.072;7.800;2024-02-16T09:10:45;99527.56;;;15.23;nan
63556;BME280;49700;48.072;7.800;2024-02-16T09:13:10;99524.28;;;15.31;nan
63556;BME280;49700;48.072;7.800;2024-02-16T09:15:36;99525.41;;;15.38;nan
63556;BME280;49700;48.072;7.800;2024-02-16T09:18:02;99524.22;;;15.42;nan
63556;BME280;49700;48.072;7.800;2024-02-16T09:20:28;99530.53;;;15.51;nan
63556;BME280;49700;48.072;7.800;2024-02-16T09:22:54;99538.66;;;15.59;nan
63556;BME280;49700;48.072;7.800;2024-02-16T09:25:19;99534.34;;;15.68;nan
63556;BME280;49700;48.072;7.800;2024-02-16T09:27:45;99535.41;;;15.77;nan
63556;BME280;49700;48.072;7.800;2024-02-16T09:30:11;99535.56;;;15.85;nan
63556;BME280;49700;48.072;7.800;2024-02-16T09:32:40;99536.03;;;15.90;nan
63556;BME280;49700;48.072;7.800;2024-02-16T09:35:07;99534.66;;;15.96;nan
63556;BME280;49700;48.072;7.800;2024-02-16T09:37:35;99538.72;;;16.00;nan
63556;BME280;49700;48.072;7.800;2024-02-16T09:40:01;99540.25;;;16.02;nan
63556;BME280;49700;48.072;7.800;2024-02-16T09:42:29;99540.69;;;16.07;nan
63556;BME280;49700;48.072;7.800;2024-02-16T09:44:54;99543.91;;;16.11;nan
63556;BME280;49700;48.072;7.800;2024-02-16T09:47:21;99543.78;;;16.12;nan
63556;BME280;49700;48.072;7.800;2024-02-16T09:49:48;99543.63;;;16.14;nan
63556;BME280;49700;48.072;7.800;2024-02-16T09:52:13;99550.34;;;16.18;nan
63556;BME280;49700;48.072;7.800;2024-02-16T09:54:39;99554.28;;;16.24;nan
63556;BME280;49700;48.072;7.800;2024-02-16T09:57:05;99560.84;;;16.29;nan
63556;BME280;49700;48.072;7.800;2024-02-16T09:59:30;99554.31;;;16.43;nan
63556;BME280;49700;48.072;7.800;2024-02-16T10:02:01;99550.47;;;16.67;nan
63556;BME280;49700;48.072;7.800;2024-02-16T10:04:27;99560.13;;;16.87;nan
63556;BME280;49700;48.072;7.800;2024-02-16T10:06:53;99566.97;;;16.99;nan
63556;BME280;49700;48.072;7.800;2024-02-16T10:09:26;99573.53;;;17.05;nan
63556;BME280;49700;48.072;7.800;2024-02-16T10:11:51;99574.09;;;17.09;nan
63556;BME280;49700;48.072;7.800;2024-02-16T10:14:17;99582.88;;;17.09;nan
63556;BME280;49700;48.072;7.800;2024-02-16T10:16:45;99582.34;;;17.06;nan
63556;BME280;49700;48.072;7.800;2024-02-16T10:19:12;99584.28;;;17.03;nan
63556;BME280;49700;48.072;7.800;2024-02-16T10:21:37;99590.59;;;17.02;nan
63556;BME280;49700;48.072;7.800;2024-02-16T10:24:11;99584.44;;;17.02;nan
63556;BME280;49700;48.072;7.800;2024-02-16T10:26:39;99596.88;;;17.01;nan
63556;BME280;49700;48.072;7.800;2024-02-16T10:29:08;99601.91;;;17.05;nan
63556;BME280;49700;48.072;7.800;2024-02-16T10:31:33;99601.47;;;17.09;nan
63556;BME280;49700;48.072;7.800;2024-02-16T10:34:04;99600.34;;;17.12;nan
63556;BME280;49700;48.072;7.800;2024-02-16T10:36:36;99604.97;;;17.10;nan
63556;BME280;49700;48.072;7.800;2024-02-16T10:39:02;99611.81;;;17.12;nan
63556;BME280;49700;48.072;7.800;2024-02-16T10:41:35;99602.75;;;17.15;nan
63556;BME280;49700;48.072;7.800;2024-02-16T10:44:02;99612.78;;;17.11;nan
63556;BME280;49700;48.072;7.800;2024-02-16T10:46:28;99619.38;;;17.07;nan
63556;BME280;49700;48.072;7.800;2024-02-16T10:48:54;99623.97;;;17.05;nan
63556;BME280;49700;48.072;7.800;2024-02-16T10:51:30;99621.19;;;17.07;nan
63556;BME280;49700;48.072;7.800;2024-02-16T10:53:57;99621.44;;;17.03;nan
63556;BME280;49700;48.072;7.800;2024-02-16T10:56:35;99626.19;;;17.00;nan
63556;BME280;49700;48.072;7.800;2024-02-16T10:59:05;99627.03;;;17.00;nan
63556;BME280;49700;48.072;7.800;2024-02-16T11:01:39;99634.72;;;16.94;nan
63556;BME280;49700;48.072;7.800;2024-02-16T11:04:07;99633.72;;;16.85;nan
63556;BME280;49700;48.072;7.800;2024-02-16T11:06:54;99637.50;;;16.83;nan
63556;BME280;49700;48.072;7.800;2024-02-16T11:09:33;99637.63;;;16.81;nan
63556;BME280;49700;48.072;7.800;2024-02-16T11:12:00;99642.22;;;16.79;nan
63556;BME280;49700;48.072;7.800;2024-02-16T11:17:12;99639.44;;;16.80;nan
63556;BME280;49700;48.072;7.800;2024-02-16T11:19:45;99643.47;;;16.85;nan
63556;BME280;49700;48.072;7.800;2024-02-16T11:22:10;99649.09;;;16.91;nan
63556;BME280;49700;48.072;7.800;2024-02-16T11:24:42;99649.91;;;16.92;nan
63556;BME280;49700;48.072;7.800;2024-02-16T11:27:08;99641.84;;;16.93;nan
63556;BME280;49700;48.072;7.800;2024-02-16T11:29:38;99647.97;;;16.94;nan
63556;BME280;49700;48.072;7.800;2024-02-16T11:32:07;99640.84;;;16.94;nan
63556;BME280;49700;48.072;7.800;2024-02-16T11:34:34;99644.88;;;16.98;nan
63556;BME280;49700;48.072;7.800;2024-02-16T11:37:01;99649.25;;;16.99;nan
63556;BME280;49700;48.072;7.800;2024-02-16T11:39:27;99643.22;;;16.97;nan
63556;BME280;49700;48.072;7.800;2024-02-16T11:42:09;99646.88;;;16.96;nan
63556;BME280;49700;48.072;7.800;2024-02-16T11:44:50;99647.69;;;16.97;nan
63556;BME280;49700;48.072;7.800;2024-02-16T11:47:23;99649.66;;;16.95;nan
63556;BME280;49700;48.072;7.800;2024-02-16T11:50:05;99643.50;;;16.94;nan
63556;BME280;49700;48.072;7.800;2024-02-16T11:52:31;99650.75;;;16.92;nan
63556;BME280;49700;48.072;7.800;2024-02-16T11:54:57;99652.28;;;16.85;nan
63556;BME280;49700;48.072;7.800;2024-02-16T11:57:26;99657.84;;;16.82;nan
63556;BME280;49700;48.072;7.800;2024-02-16T11:59:51;99652.69;;;16.80;nan
63556;BME280;49700;48.072;7.800;2024-02-16T12:02:17;99658.28;;;16.77;nan
63556;BME280;49700;48.072;7.800;2024-02-16T12:04:44;99656.69;;;16.75;nan
63556;BME280;49700;48.072;7.800;2024-02-16T12:07:12;99659.47;;;16.73;nan
63556;BME280;49700;48.072;7.800;2024-02-16T12:09:39;99659.94;;;16.78;nan
63556;BME280;49700;48.072;7.800;2024-02-16T12:12:05;99662.47;;;16.80;nan
63556;BME280;49700;48.072;7.800;2024-02-16T12:14:31;99665.41;;;16.77;nan
63556;BME280;49700;48.072;7.800;2024-02-16T12:16:58;99650.97;;;16.70;nan
63556;BME280;49700;48.072;7.800;2024-02-16T12:19:23;99660.88;;;16.68;nan
63556;BME280;49700;48.072;7.800;2024-02-16T12:21:50;99659.59;;;16.62;nan
63556;BME280;49700;48.072;7.800;2024-02-16T12:24:17;99669.63;;;16.58;nan
63556;BME280;49700;48.072;7.800;2024-02-16T12:26:42;99663.75;;;16.55;nan
63556;BME280;49700;48.072;7.800;2024-02-16T12:29:08;99671.84;;;16.53;nan
63556;BME280;49700;48.072;7.800;2024-02-16T12:31:38;99672.41;;;16.47;nan
63556;BME280;49700;48.072;7.800;2024-02-16T12:34:05;99679.03;;;16.42;nan
63556;BME280;49700;48.072;7.800;2024-02-16T12:36:33;99678.03;;;16.33;nan
63556;BME280;49700;48.072;7.800;2024-02-16T12:38:59;99672.13;;;16.20;nan
63556;BME280;49700;48.072;7.800;2024-02-16T12:41:24;99683.63;;;16.09;nan
63556;BME280;49700;48.072;7.800;2024-02-16T12:43:50;99675.38;;;16.02;nan
63556;BME280;49700;48.072;7.800;2024-02-16T12:46:16;99676.03;;;15.95;nan
63556;BME280;49700;48.072;7.800;2024-02-16T12:48:41;99680.75;;;15.91;nan
63556;BME280;49700;48.072;7.800;2024-02-16T12:51:07;99676.41;;;15.90;nan
63556;BME280;49700;48.072;7.800;2024-02-16T12:53:32;99676.56;;;15.88;nan
63556;BME280;49700;48.072;7.800;2024-02-16T12:56:07;99679.06;;;15.90;nan
63556;BME280;49700;48.072;7.800;2024-02-16T12:58:33;99678.78;;;15.93;nan
63556;BME280;49700;48.072;7.800;2024-02-16T13:00:59;99677.56;;;15.97;nan
63556;BME280;49700;48.072;7.800;2024-02-16T13:03:24;99673.00;;;15.99;nan
63556;BME280;49700;48.072;7.800;2024-02-16T13:05:49;99675.75;;;15.98;nan
63556;BME280;49700;48.072;7.800;2024-02-16T13:08:15;99681.91;;;15.98;nan
63556;BME280;49700;48.072;7.800;2024-02-16T13:10:40;99678.28;;;15.99;nan
63556;BME280;49700;48.072;7.800;2024-02-16T13:13:06;99681.06;;;15.98;nan
63556;BME280;49700;48.072;7.800;2024-02-16T13:15:31;99673.66;;;15.91;nan
63556;BME280;49700;48.072;7.800;2024-02-16T13:17:57;99677.13;;;15.92;nan
63556;BME280;49700;48.072;7.800;2024-02-16T13:20:23;99673.38;;;15.95;nan
63556;BME280;49700;48.072;7.800;2024-02-16T13:22:48;99676.16;;;15.93;nan